Time,TemperatureF,DewpointF,PressureIn,WindDirection,WindDirectionDegrees,WindSpeedMPH,WindSpeedGustMPH,Humidity,HourlyPrecipIn,Conditions,Clouds,dailyrainin,SoftwareType,DateUTC
2013-01-17 00:00:00,31.5,25.1,29.88,WSW,239,0.0,2.7,77,0.00,,---,0.00,VWS V14.01,2013-01-17 05:00:00,
2013-01-17 00:02:00,31.5,25.1,29.88,WSW,239,3.6,4.9,77,0.00,,---,0.00,VWS V14.01,2013-01-17 05:02:00,
2013-01-17 00:03:00,31.5,25.1,29.88,WSW,239,3.6,4.9,77,0.00,,---,0.00,VWS V14.01,2013-01-17 05:03:00,
2013-01-17 00:04:00,31.5,25.1,29.88,WSW,239,3.6,4.9,77,0.00,,---,0.00,VWS V14.01,2013-01-17 05:04:00,
2013-01-17 00:09:00,31.5,25.1,29.88,SW,232,6.3,6.3,77,0.00,,---,0.00,VWS V14.01,2013-01-17 05:09:00,
2013-01-17 00:14:00,31.6,25.3,29.88,WSW,252,0.0,5.4,77,0.00,,---,0.00,VWS V14.01,2013-01-17 05:14:00,
2013-01-17 00:19:00,31.6,25.3,29.88,WSW,239,3.6,4.9,77,0.00,,---,0.00,VWS V14.01,2013-01-17 05:19:00,
2013-01-17 00:24:00,31.6,25.3,29.88,SW,220,3.1,4.9,77,0.00,,---,0.00,VWS V14.01,2013-01-17 05:24:00,
2013-01-17 00:29:00,31.8,25.4,29.88,SW,220,3.6,4.5,77,0.00,,---,0.00,VWS V14.01,2013-01-17 05:29:00,
2013-01-17 00:34:00,31.8,25.4,29.88,SW,230,2.7,5.8,77,0.00,,---,0.00,VWS V14.01,2013-01-17 05:34:00,
2013-01-17 00:39:00,31.8,25.4,29.88,SW,225,2.7,4.5,77,0.00,,---,0.00,VWS V14.01,2013-01-17 05:39:00,
2013-01-17 00:44:00,32.0,25.6,29.88,SW,219,3.1,4.5,77,0.00,,---,0.00,VWS V14.01,2013-01-17 05:44:00,
2013-01-17 00:49:00,32.0,25.6,29.88,SW,219,0.0,3.6,77,0.00,,---,0.00,VWS V14.01,2013-01-17 05:49:00,
2013-01-17 00:54:00,32.2,25.8,29.88,SW,219,0.0,4.0,77,0.00,,---,0.00,VWS V14.01,2013-01-17 05:54:00,
2013-01-17 00:59:00,32.2,25.8,29.88,SW,220,0.0,3.1,77,0.00,,---,0.00,VWS V14.01,2013-01-17 05:59:00,
2013-01-17 01:04:00,32.2,25.8,29.88,SW,219,0.0,0.0,77,0.00,,---,0.00,VWS V14.01,2013-01-17 06:04:00,
2013-01-17 01:09:00,32.2,25.8,29.91,SW,219,0.0,0.0,77,0.00,,---,0.00,VWS V14.01,2013-01-17 06:09:00,
2013-01-17 01:14:00,32.0,25.6,29.91,SW,219,0.0,0.0,77,0.00,,---,0.00,VWS V14.01,2013-01-17 06:14:00,
2013-01-17 01:19:00,31.8,25.4,29.91,SW,219,0.0,0.0,77,0.00,,---,0.00,VWS V14.01,2013-01-17 06:19:00,
2013-01-17 01:24:00,31.6,25.3,29.88,SW,219,0.0,0.0,77,0.00,,---,0.00,VWS V14.01,2013-01-17 06:24:00,
2013-01-17 01:29:00,31.8,25.4,29.88,SW,219,0.0,2.7,77,0.00,,---,0.00,VWS V14.01,2013-01-17 06:29:00,
2013-01-17 01:34:00,31.6,25.3,29.88,SW,219,0.0,3.1,77,0.00,,---,0.00,VWS V14.01,2013-01-17 06:34:00,
2013-01-17 01:39:00,31.6,25.3,29.88,SW,220,0.0,4.5,77,0.00,,---,0.00,VWS V14.01,2013-01-17 06:39:00,
2013-01-17 01:44:00,31.6,25.3,29.88,SW,220,2.7,3.1,77,0.00,,---,0.00,VWS V14.01,2013-01-17 06:44:00,
2013-01-17 01:49:00,31.6,25.3,29.88,SW,226,3.6,4.9,77,0.00,,---,0.00,VWS V14.01,2013-01-17 06:49:00,
2013-01-17 01:54:00,31.6,25.3,29.88,SW,227,0.0,4.5,77,0.00,,---,0.00,VWS V14.01,2013-01-17 06:54:00,
2013-01-17 01:59:00,31.8,25.4,29.88,SW,227,0.0,3.1,77,0.00,,---,0.00,VWS V14.01,2013-01-17 06:59:00,
2013-01-17 02:04:00,32.0,25.9,29.88,SW,227,0.0,2.7,78,0.00,,---,0.00,VWS V14.01,2013-01-17 07:04:00,
2013-01-17 02:09:00,32.2,26.1,29.88,SW,227,0.0,0.0,78,0.00,,---,0.00,VWS V14.01,2013-01-17 07:09:00,
2013-01-17 02:14:00,32.2,26.1,29.88,SW,227,0.0,2.7,78,0.00,,---,0.00,VWS V14.01,2013-01-17 07:14:00,
2013-01-17 02:19:00,32.2,26.1,29.88,SW,227,0.0,3.1,78,0.00,,---,0.00,VWS V14.01,2013-01-17 07:19:00,
2013-01-17 02:24:00,32.2,26.1,29.91,SW,227,0.0,0.0,78,0.00,,---,0.00,VWS V14.01,2013-01-17 07:24:00,
2013-01-17 02:29:00,32.2,26.1,29.91,SW,227,3.1,3.6,78,0.00,,---,0.00,VWS V14.01,2013-01-17 07:29:00,
2013-01-17 02:34:00,32.2,26.1,29.91,SW,227,3.1,4.0,78,0.00,,---,0.00,VWS V14.01,2013-01-17 07:34:00,
2013-01-17 02:39:00,32.4,26.3,29.88,SW,227,4.5,4.9,78,0.00,,---,0.00,VWS V14.01,2013-01-17 07:39:00,
2013-01-17 02:44:00,32.4,26.3,29.88,SW,227,0.0,4.5,78,0.00,,---,0.00,VWS V14.01,2013-01-17 07:44:00,
2013-01-17 02:49:00,32.4,26.3,29.88,SW,227,3.6,4.5,78,0.00,,---,0.00,VWS V14.01,2013-01-17 07:49:00,
2013-01-17 02:54:00,32.4,26.3,29.88,SW,227,0.0,3.6,78,0.00,,---,0.00,VWS V14.01,2013-01-17 07:54:00,
2013-01-17 02:59:00,32.4,26.3,29.88,SW,228,4.0,4.0,78,0.00,,---,0.00,VWS V14.01,2013-01-17 07:59:00,
2013-01-17 03:04:00,32.2,26.1,29.88,SW,228,0.0,4.0,78,0.00,,---,0.00,VWS V14.01,2013-01-17 08:04:00,
2013-01-17 03:09:00,32.2,26.1,29.91,SW,227,4.9,4.9,78,0.00,,---,0.00,VWS V14.01,2013-01-17 08:09:00,
2013-01-17 03:14:00,32.2,26.1,29.91,SW,225,0.0,5.4,78,0.00,,---,0.00,VWS V14.01,2013-01-17 08:14:00,
2013-01-17 03:19:00,32.2,26.1,29.91,SW,225,0.0,3.6,78,0.00,,---,0.00,VWS V14.01,2013-01-17 08:19:00,
2013-01-17 03:24:00,32.2,26.1,29.88,WSW,246,2.7,8.3,78,0.00,,---,0.00,VWS V14.01,2013-01-17 08:24:00,
2013-01-17 03:29:00,32.5,26.5,29.88,WSW,246,3.6,4.5,78,0.00,,---,0.00,VWS V14.01,2013-01-17 08:29:00,
2013-01-17 03:34:00,32.5,26.5,29.88,WSW,245,3.1,4.0,78,0.00,,---,0.00,VWS V14.01,2013-01-17 08:34:00,
2013-01-17 03:39:00,32.5,26.5,29.88,WSW,245,2.7,3.6,78,0.00,,---,0.00,VWS V14.01,2013-01-17 08:39:00,
2013-01-17 03:44:00,32.2,26.1,29.88,WSW,246,0.0,4.0,78,0.00,,---,0.00,VWS V14.01,2013-01-17 08:44:00,
2013-01-17 03:49:00,32.2,26.1,29.88,WSW,245,0.0,0.0,78,0.00,,---,0.00,VWS V14.01,2013-01-17 08:49:00,
2013-01-17 03:54:00,32.0,25.9,29.88,WSW,245,0.0,4.0,78,0.00,,---,0.00,VWS V14.01,2013-01-17 08:54:00,
2013-01-17 03:59:00,32.0,25.9,29.88,WSW,245,0.0,4.5,78,0.00,,---,0.00,VWS V14.01,2013-01-17 08:59:00,
2013-01-17 04:04:00,32.0,25.9,29.88,WSW,245,0.0,3.1,78,0.00,,---,0.00,VWS V14.01,2013-01-17 09:04:00,
2013-01-17 04:09:00,32.0,25.6,29.88,WSW,246,0.0,3.6,77,0.00,,---,0.00,VWS V14.01,2013-01-17 09:09:00,
2013-01-17 04:14:00,31.8,25.4,29.88,South,187,0.0,5.4,77,0.00,,---,0.00,VWS V14.01,2013-01-17 09:14:00,
2013-01-17 04:19:00,31.6,25.3,29.88,SW,232,4.0,5.8,77,0.00,,---,0.00,VWS V14.01,2013-01-17 09:19:00,
2013-01-17 04:24:00,31.8,25.4,29.88,NNW,332,6.9,6.9,77,0.00,,---,0.00,VWS V14.01,2013-01-17 09:24:00,
2013-01-17 04:29:00,32.0,25.6,29.88,WSW,240,3.1,7.8,77,0.00,,---,0.00,VWS V14.01,2013-01-17 09:29:00,
2013-01-17 04:34:00,32.2,25.8,29.88,West,278,0.0,6.9,77,0.00,,---,0.00,VWS V14.01,2013-01-17 09:34:00,
2013-01-17 04:39:00,32.4,26.0,29.88,West,275,3.6,4.5,77,0.00,,---,0.00,VWS V14.01,2013-01-17 09:39:00,
2013-01-17 04:44:00,32.4,26.0,29.88,West,275,2.7,4.5,77,0.00,,---,0.00,VWS V14.01,2013-01-17 09:44:00,
2013-01-17 04:49:00,32.4,25.6,29.88,SW,230,0.0,6.3,76,0.00,,---,0.00,VWS V14.01,2013-01-17 09:49:00,
2013-01-17 04:54:00,32.4,25.6,29.88,SW,230,0.0,4.0,76,0.00,,---,0.00,VWS V14.01,2013-01-17 09:54:00,
2013-01-17 04:59:00,32.2,25.5,29.88,SW,230,0.0,2.7,76,0.00,,---,0.00,VWS V14.01,2013-01-17 09:59:00,
2013-01-17 05:04:00,32.0,25.0,29.88,SW,230,0.0,0.0,75,0.00,,---,0.00,VWS V14.01,2013-01-17 10:04:00,
2013-01-17 05:09:00,31.6,24.3,29.88,SW,230,0.0,3.1,74,0.00,,---,0.00,VWS V14.01,2013-01-17 10:09:00,
2013-01-17 05:14:00,31.5,24.1,29.88,SW,230,2.7,4.0,74,0.00,,---,0.00,VWS V14.01,2013-01-17 10:14:00,
2013-01-17 05:19:00,31.5,23.8,29.88,SW,230,0.0,3.6,73,0.00,,---,0.00,VWS V14.01,2013-01-17 10:19:00,
2013-01-17 05:24:00,31.8,24.2,29.91,WNW,295,0.0,6.7,73,0.00,,---,0.00,VWS V14.01,2013-01-17 10:24:00,
2013-01-17 05:29:00,32.2,24.5,29.91,West,269,3.6,8.3,73,0.00,,---,0.00,VWS V14.01,2013-01-17 10:29:00,
2013-01-17 05:34:00,32.2,24.5,29.91,West,264,3.1,4.9,73,0.00,,---,0.00,VWS V14.01,2013-01-17 10:34:00,
2013-01-17 05:39:00,32.2,24.2,29.91,West,264,0.0,5.4,72,0.00,,---,0.00,VWS V14.01,2013-01-17 10:39:00,
2013-01-17 05:44:00,32.2,24.2,29.91,West,264,0.0,3.6,72,0.00,,---,0.00,VWS V14.01,2013-01-17 10:44:00,
2013-01-17 05:49:00,32.2,23.9,29.91,West,264,0.0,3.1,71,0.00,,---,0.00,VWS V14.01,2013-01-17 10:49:00,
2013-01-17 05:54:00,31.8,22.8,29.91,West,264,0.0,4.0,69,0.00,,---,0.00,VWS V14.01,2013-01-17 10:54:00,
2013-01-17 05:59:00,31.5,22.1,29.91,West,264,0.0,0.0,68,0.00,,---,0.00,VWS V14.01,2013-01-17 10:59:00,
2013-01-17 06:04:00,31.3,22.0,29.91,West,264,0.0,0.0,68,0.00,,---,0.00,VWS V14.01,2013-01-17 11:04:00,
2013-01-17 06:09:00,31.3,21.6,29.91,West,264,0.0,0.0,67,0.00,,---,0.00,VWS V14.01,2013-01-17 11:09:00,
2013-01-17 06:14:00,31.1,21.1,29.91,West,264,0.0,0.0,66,0.00,,---,0.00,VWS V14.01,2013-01-17 11:14:00,
2013-01-17 06:19:00,30.9,20.9,29.91,West,264,3.1,3.1,66,0.00,,---,0.00,VWS V14.01,2013-01-17 11:19:00,
2013-01-17 06:24:00,30.9,20.9,29.94,West,264,0.0,0.0,66,0.00,,---,0.00,VWS V14.01,2013-01-17 11:24:00,
2013-01-17 06:29:00,30.6,20.2,29.94,West,264,0.0,3.1,65,0.00,,---,0.00,VWS V14.01,2013-01-17 11:29:00,
2013-01-17 06:34:00,30.6,20.2,29.94,West,279,0.0,4.9,65,0.00,,---,0.00,VWS V14.01,2013-01-17 11:34:00,
2013-01-17 06:39:00,30.9,20.9,29.94,West,280,2.7,4.9,66,0.00,,---,0.00,VWS V14.01,2013-01-17 11:39:00,
2013-01-17 06:44:00,30.9,20.5,29.94,West,280,2.7,4.0,65,0.00,,---,0.00,VWS V14.01,2013-01-17 11:44:00,
2013-01-17 06:49:00,30.9,20.5,29.94,West,280,0.0,3.1,65,0.00,,---,0.00,VWS V14.01,2013-01-17 11:49:00,
2013-01-17 06:54:00,30.9,20.5,29.94,West,280,0.0,3.1,65,0.00,,---,0.00,VWS V14.01,2013-01-17 11:54:00,
2013-01-17 06:59:00,30.9,20.5,29.94,West,280,0.0,3.6,65,0.00,,---,0.00,VWS V14.01,2013-01-17 11:59:00,
2013-01-17 07:04:00,31.1,20.4,29.94,North,356,0.0,4.5,64,0.00,,---,0.00,VWS V14.01,2013-01-17 12:04:00,
2013-01-17 07:09:00,31.3,20.5,29.94,North,356,0.0,0.0,64,0.00,,---,0.00,VWS V14.01,2013-01-17 12:09:00,
2013-01-17 07:14:00,31.3,20.2,29.94,North,356,0.0,2.7,63,0.00,,---,0.00,VWS V14.01,2013-01-17 12:14:00,
2013-01-17 07:19:00,31.3,20.2,29.94,North,356,3.6,3.6,63,0.00,,---,0.00,VWS V14.01,2013-01-17 12:19:00,
2013-01-17 07:24:00,31.5,20.3,29.94,North,356,0.0,4.0,63,0.00,,---,0.00,VWS V14.01,2013-01-17 12:24:00,
2013-01-17 07:29:00,31.1,19.2,29.94,North,356,0.0,0.0,61,0.00,,---,0.00,VWS V14.01,2013-01-17 12:29:00,
2013-01-17 07:34:00,30.9,19.1,29.94,North,356,0.0,0.0,61,0.00,,---,0.00,VWS V14.01,2013-01-17 12:34:00,
2013-01-17 07:39:00,31.1,19.2,29.97,North,356,0.0,3.1,61,0.00,,---,0.00,VWS V14.01,2013-01-17 12:39:00,
2013-01-17 07:45:00,30.9,19.1,29.97,North,356,2.7,2.7,61,0.00,,---,0.00,VWS V14.01,2013-01-17 12:45:00,
2013-01-17 07:50:00,30.9,19.1,29.97,WNW,286,0.0,2.7,61,0.00,,---,0.00,VWS V14.01,2013-01-17 12:50:00,
2013-01-17 07:55:00,31.5,19.6,29.97,WNW,287,3.1,3.6,61,0.00,,---,0.00,VWS V14.01,2013-01-17 12:55:00,
2013-01-17 08:00:00,31.6,19.8,29.97,North,356,4.0,6.3,61,0.00,,---,0.00,VWS V14.01,2013-01-17 13:00:00,
2013-01-17 08:05:00,32.4,20.8,29.97,NNE,17,3.1,4.0,62,0.00,,---,0.00,VWS V14.01,2013-01-17 13:05:00,
2013-01-17 08:10:00,33.1,21.1,29.97,WNW,300,4.9,6.9,61,0.00,,---,0.00,VWS V14.01,2013-01-17 13:10:00,
2013-01-17 08:15:00,33.4,21.5,29.97,WSW,256,6.9,7.8,61,0.00,,---,0.00,VWS V14.01,2013-01-17 13:15:00,
2013-01-17 08:20:00,33.8,21.8,29.97,WNW,293,4.9,6.7,61,0.00,,---,0.00,VWS V14.01,2013-01-17 13:20:00,
2013-01-17 08:25:00,34.2,22.1,30.00,West,267,0.0,6.9,61,0.00,,---,0.00,VWS V14.01,2013-01-17 13:25:00,
2013-01-17 08:30:00,34.3,21.9,30.00,NW,315,6.3,7.4,60,0.00,,---,0.00,VWS V14.01,2013-01-17 13:30:00,
2013-01-17 08:35:00,34.7,22.2,30.00,NW,308,5.8,6.9,60,0.00,,---,0.00,VWS V14.01,2013-01-17 13:35:00,
2013-01-17 08:40:00,34.9,22.0,30.00,WNW,296,7.4,8.3,59,0.00,,---,0.00,VWS V14.01,2013-01-17 13:40:00,
2013-01-17 08:46:00,35.4,22.5,30.00,NNW,332,6.3,11.2,59,0.00,,---,0.00,VWS V14.01,2013-01-17 13:46:00,
2013-01-17 08:51:00,35.8,22.5,30.00,NW,305,6.7,7.8,58,0.00,,---,0.00,VWS V14.01,2013-01-17 13:51:00,
2013-01-17 08:56:00,36.3,22.6,30.00,WNW,282,8.7,11.6,57,0.00,,---,0.00,VWS V14.01,2013-01-17 13:56:00,
2013-01-17 09:01:00,36.7,22.0,30.00,NW,304,4.0,6.9,55,0.00,,---,0.00,VWS V14.01,2013-01-17 14:01:00,
2013-01-17 09:06:00,37.0,22.4,30.00,North,356,0.0,9.2,55,0.00,,---,0.00,VWS V14.01,2013-01-17 14:06:00,
2013-01-17 09:11:00,37.4,22.3,30.00,WNW,299,5.4,7.4,54,0.00,,---,0.00,VWS V14.01,2013-01-17 14:11:00,
2013-01-17 09:16:00,37.8,21.7,30.00,West,271,7.4,11.6,52,0.00,,---,0.00,VWS V14.01,2013-01-17 14:16:00,
2013-01-17 09:21:00,37.9,21.4,30.00,WNW,283,10.5,12.1,51,0.00,,---,0.00,VWS V14.01,2013-01-17 14:21:00,
2013-01-17 09:26:00,38.1,21.1,30.00,NW,310,6.7,8.7,50,0.00,,---,0.00,VWS V14.01,2013-01-17 14:26:00,
2013-01-17 09:31:00,38.5,20.0,30.00,NW,319,4.5,12.5,47,0.00,,---,0.00,VWS V14.01,2013-01-17 14:31:00,
2013-01-17 09:36:00,38.1,19.7,30.03,WNW,302,3.6,6.9,47,0.00,,---,0.00,VWS V14.01,2013-01-17 14:36:00,
2013-01-17 09:41:00,37.9,18.0,30.03,WSW,240,2.7,5.4,44,0.00,,---,0.00,VWS V14.01,2013-01-17 14:41:00,
2013-01-17 09:46:00,37.9,18.0,30.03,West,272,4.0,6.3,44,0.00,,---,0.00,VWS V14.01,2013-01-17 14:46:00,
2013-01-17 09:51:00,38.1,18.1,30.03,WNW,303,4.9,8.3,44,0.00,,---,0.00,VWS V14.01,2013-01-17 14:51:00,
2013-01-17 09:56:00,38.1,17.6,30.03,NW,307,5.8,14.3,43,0.00,,---,0.00,VWS V14.01,2013-01-17 14:56:00,
2013-01-17 10:01:00,37.9,16.4,30.03,WNW,303,8.3,11.0,41,0.00,,---,0.00,VWS V14.01,2013-01-17 15:01:00,
2013-01-17 10:06:00,38.3,16.1,30.03,West,263,5.8,10.1,40,0.00,,---,0.00,VWS V14.01,2013-01-17 15:06:00,
2013-01-17 10:11:00,39.2,17.5,30.03,WSW,257,3.6,6.9,41,0.00,,---,0.00,VWS V14.01,2013-01-17 15:11:00,
2013-01-17 10:16:00,39.9,18.1,30.03,West,275,5.4,6.7,41,0.00,,---,0.00,VWS V14.01,2013-01-17 15:16:00,
2013-01-17 10:21:00,40.5,18.1,30.03,SW,235,2.7,10.1,40,0.00,,---,0.00,VWS V14.01,2013-01-17 15:21:00,
2013-01-17 10:26:00,40.8,17.8,30.03,North,351,3.6,4.9,39,0.00,,---,0.00,VWS V14.01,2013-01-17 15:26:00,
2013-01-17 10:31:00,41.4,18.3,30.03,NW,321,0.0,4.9,39,0.00,,---,0.00,VWS V14.01,2013-01-17 15:31:00,
2013-01-17 10:36:00,42.3,19.1,30.03,WNW,298,5.8,9.6,39,0.00,,---,0.00,VWS V14.01,2013-01-17 15:36:00,
2013-01-17 10:41:00,43.0,19.1,30.03,NW,314,4.9,6.7,38,0.00,,---,0.00,VWS V14.01,2013-01-17 15:41:00,
2013-01-17 10:46:00,43.5,18.4,30.03,NW,313,4.5,12.5,36,0.00,,---,0.00,VWS V14.01,2013-01-17 15:46:00,
2013-01-17 10:51:00,44.1,17.5,30.00,WNW,302,7.4,7.8,34,0.00,,---,0.00,VWS V14.01,2013-01-17 15:51:00,
2013-01-17 10:56:00,44.8,18.8,30.00,NW,306,6.3,11.2,35,0.00,,---,0.00,VWS V14.01,2013-01-17 15:56:00,
2013-01-17 11:01:00,45.1,17.8,30.00,West,269,7.4,12.1,33,0.00,,---,0.00,VWS V14.01,2013-01-17 16:01:00,
2013-01-17 11:06:00,44.8,14.5,30.03,NW,307,5.4,10.5,29,0.00,,---,0.00,VWS V14.01,2013-01-17 16:06:00,
2013-01-17 11:11:00,45.0,15.4,30.03,NW,320,7.8,11.6,30,0.00,,---,0.00,VWS V14.01,2013-01-17 16:11:00,
2013-01-17 11:16:00,45.3,14.9,30.03,NW,314,3.1,13.0,29,0.00,,---,0.00,VWS V14.01,2013-01-17 16:16:00,
2013-01-17 11:21:00,45.3,14.1,30.00,NW,311,8.7,14.3,28,0.00,,---,0.00,VWS V14.01,2013-01-17 16:21:00,
2013-01-17 11:26:00,45.3,14.1,30.00,WNW,302,5.8,11.6,28,0.00,,---,0.00,VWS V14.01,2013-01-17 16:26:00,
2013-01-17 11:31:00,45.3,14.1,30.00,NW,313,5.8,10.1,28,0.00,,---,0.00,VWS V14.01,2013-01-17 16:31:00,
2013-01-17 11:36:00,45.0,13.8,30.03,North,356,0.0,13.0,28,0.00,,---,0.00,VWS V14.01,2013-01-17 16:36:00,
2013-01-17 11:41:00,45.5,13.5,30.03,WNW,293,4.9,9.6,27,0.00,,---,0.00,VWS V14.01,2013-01-17 16:41:00,
2013-01-17 11:46:00,46.0,13.9,30.03,NNE,24,6.3,13.0,27,0.00,,---,0.00,VWS V14.01,2013-01-17 16:46:00,
2013-01-17 11:52:00,46.2,14.1,30.00,North,351,4.5,9.6,27,0.00,,---,0.00,VWS V14.01,2013-01-17 16:52:00,
2013-01-17 11:57:00,46.0,13.9,30.00,WNW,296,9.6,13.9,27,0.00,,---,0.00,VWS V14.01,2013-01-17 16:57:00,
2013-01-17 12:02:00,45.9,13.8,30.00,WNW,291,6.3,13.0,27,0.00,,---,0.00,VWS V14.01,2013-01-17 17:02:00,
2013-01-17 12:07:00,46.2,14.1,30.00,WNW,288,8.7,9.6,27,0.00,,---,0.00,VWS V14.01,2013-01-17 17:07:00,
2013-01-17 12:12:00,46.2,11.4,30.00,NW,311,4.5,10.1,24,0.04,,---,0.04,VWS V14.01,2013-01-17 17:12:00,
2013-01-17 12:17:00,46.2,14.1,30.00,West,275,10.1,10.1,27,0.04,,---,0.04,VWS V14.01,2013-01-17 17:17:00,
2013-01-17 12:22:00,45.5,10.8,30.00,NW,310,4.9,10.1,24,0.04,,---,0.04,VWS V14.01,2013-01-17 17:22:00,
2013-01-17 12:27:00,44.6,11.0,30.00,NNW,327,3.6,11.2,25,0.04,,---,0.04,VWS V14.01,2013-01-17 17:27:00,
2013-01-17 12:32:00,44.1,10.5,30.00,WNW,292,9.6,15.4,25,0.08,,---,0.08,VWS V14.01,2013-01-17 17:32:00,
2013-01-17 12:37:00,43.0,9.6,30.00,WNW,290,6.3,9.2,25,0.08,,---,0.08,VWS V14.01,2013-01-17 17:37:00,
2013-01-17 12:42:00,43.0,12.1,30.00,WNW,283,10.1,13.4,28,0.08,,---,0.08,VWS V14.01,2013-01-17 17:42:00,
2013-01-17 12:47:00,43.3,12.4,30.00,NW,311,8.3,11.0,28,0.08,,---,0.08,VWS V14.01,2013-01-17 17:47:00,
2013-01-17 12:52:00,43.5,12.6,30.00,West,271,4.9,10.1,28,0.12,,---,0.12,VWS V14.01,2013-01-17 17:52:00,
2013-01-17 12:57:00,43.5,12.6,30.00,North,0,5.4,10.1,28,0.12,,---,0.12,VWS V14.01,2013-01-17 17:57:00,
2013-01-17 13:02:00,43.3,12.4,30.00,NW,308,5.4,10.5,28,0.12,,---,0.12,VWS V14.01,2013-01-17 18:02:00,
2013-01-17 13:07:00,43.9,12.1,30.00,West,276,8.7,9.2,27,0.12,,---,0.12,VWS V14.01,2013-01-17 18:07:00,
2013-01-17 13:12:00,44.4,12.6,30.00,NW,308,5.8,12.5,27,0.12,,---,0.12,VWS V14.01,2013-01-17 18:12:00,
2013-01-17 13:17:00,44.6,12.7,30.00,WSW,248,7.4,9.2,27,0.12,,---,0.16,VWS V14.01,2013-01-17 18:17:00,
2013-01-17 13:22:00,44.8,12.9,30.00,WNW,301,11.2,11.2,27,0.12,,---,0.16,VWS V14.01,2013-01-17 18:22:00,
2013-01-17 13:27:00,45.1,13.2,30.00,West,261,10.5,13.0,27,0.12,,---,0.16,VWS V14.01,2013-01-17 18:27:00,
2013-01-17 13:32:00,44.6,11.0,30.00,NW,315,6.7,13.4,25,0.08,,---,0.16,VWS V14.01,2013-01-17 18:32:00,
2013-01-17 13:37:00,44.2,10.7,30.00,NW,320,4.0,15.2,25,0.08,,---,0.16,VWS V14.01,2013-01-17 18:37:00,
2013-01-17 13:42:00,44.2,10.7,30.00,West,266,9.6,15.4,25,0.08,,---,0.16,VWS V14.01,2013-01-17 18:42:00,
2013-01-17 13:47:00,44.2,10.7,30.00,WNW,284,8.3,11.0,25,0.08,,---,0.16,VWS V14.01,2013-01-17 18:47:00,
2013-01-17 13:52:00,44.2,10.7,30.00,North,356,3.1,10.5,25,0.08,,---,0.16,VWS V14.01,2013-01-17 18:52:00,
2013-01-17 13:57:00,43.9,10.4,30.00,West,268,5.8,14.8,25,0.04,,---,0.16,VWS V14.01,2013-01-17 18:57:00,
2013-01-17 14:02:00,43.9,10.4,30.00,WNW,288,4.0,13.9,25,0.04,,---,0.16,VWS V14.01,2013-01-17 19:02:00,
2013-01-17 14:07:00,44.2,10.7,30.00,NNW,332,4.5,8.7,25,0.04,,---,0.16,VWS V14.01,2013-01-17 19:07:00,
2013-01-17 14:12:00,43.9,10.4,30.00,North,356,5.8,10.1,25,0.08,,---,0.20,VWS V14.01,2013-01-17 19:12:00,
2013-01-17 14:17:00,43.2,7.9,30.00,NNE,15,2.7,6.7,23,0.08,,---,0.20,VWS V14.01,2013-01-17 19:17:00,
2013-01-17 14:22:00,43.3,8.0,30.03,North,2,4.0,4.9,23,0.04,,---,0.20,VWS V14.01,2013-01-17 19:22:00,
2013-01-17 14:27:00,43.3,9.9,30.03,West,273,5.4,9.6,25,0.04,,---,0.20,VWS V14.01,2013-01-17 19:27:00,
2013-01-17 14:32:00,42.8,9.4,30.03,NW,321,3.1,13.0,25,0.04,,---,0.20,VWS V14.01,2013-01-17 19:32:00,
2013-01-17 14:37:00,42.8,9.4,30.00,NNE,14,4.0,6.3,25,0.04,,---,0.20,VWS V14.01,2013-01-17 19:37:00,
2013-01-17 14:42:00,42.4,7.3,30.00,North,356,4.9,5.4,23,0.04,,---,0.20,VWS V14.01,2013-01-17 19:42:00,
2013-01-17 14:47:00,42.3,9.0,30.00,West,280,0.0,7.8,25,0.04,,---,0.20,VWS V14.01,2013-01-17 19:47:00,
2013-01-17 14:52:00,41.7,9.4,30.03,West,268,6.3,6.3,26,0.04,,---,0.20,VWS V14.01,2013-01-17 19:52:00,
2013-01-17 14:57:00,41.2,8.9,30.03,WNW,297,3.6,6.7,26,0.04,,---,0.20,VWS V14.01,2013-01-17 19:57:00,
2013-01-17 15:02:00,41.0,8.8,30.03,WNW,296,2.7,7.4,26,0.04,,---,0.20,VWS V14.01,2013-01-17 20:02:00,
2013-01-17 15:07:00,40.8,8.6,30.03,WNW,287,3.1,6.3,26,0.04,,---,0.20,VWS V14.01,2013-01-17 20:07:00,
2013-01-17 15:13:00,40.6,8.4,30.03,WNW,293,3.6,6.7,26,0.04,,---,0.20,VWS V14.01,2013-01-17 20:13:00,
2013-01-17 15:18:00,40.5,8.3,30.03,West,279,3.6,8.3,26,0.00,,---,0.20,VWS V14.01,2013-01-17 20:18:00,
2013-01-17 15:23:00,40.5,9.9,30.03,West,279,0.0,7.8,28,0.00,,---,0.20,VWS V14.01,2013-01-17 20:23:00,
2013-01-17 15:28:00,40.3,9.8,30.03,NW,323,3.6,5.8,28,0.00,,---,0.20,VWS V14.01,2013-01-17 20:28:00,
2013-01-17 15:33:00,40.1,9.6,30.03,WNW,293,3.6,4.5,28,0.00,,---,0.20,VWS V14.01,2013-01-17 20:33:00,
2013-01-17 15:38:00,40.1,9.6,30.03,NW,318,0.0,6.3,28,0.00,,---,0.20,VWS V14.01,2013-01-17 20:38:00,
2013-01-17 15:43:00,39.9,9.5,30.03,NW,325,4.0,6.9,28,0.00,,---,0.20,VWS V14.01,2013-01-17 20:43:00,
2013-01-17 15:48:00,39.7,9.3,30.03,NW,325,0.0,0.0,28,0.00,,---,0.20,VWS V14.01,2013-01-17 20:48:00,
2013-01-17 15:53:00,39.6,9.2,30.03,West,281,5.4,6.3,28,0.04,,---,0.24,VWS V14.01,2013-01-17 20:53:00,
2013-01-17 15:58:00,39.4,9.8,30.03,NW,321,0.0,6.3,29,0.04,,---,0.24,VWS V14.01,2013-01-17 20:58:00,
2013-01-17 16:03:00,39.2,9.6,30.03,West,267,2.7,4.9,29,0.04,,---,0.24,VWS V14.01,2013-01-17 21:03:00,
2013-01-17 16:08:00,39.0,9.5,30.03,West,263,5.4,6.7,29,0.04,,---,0.24,VWS V14.01,2013-01-17 21:08:00,
2013-01-17 16:13:00,38.7,9.2,30.03,NW,322,0.0,7.8,29,0.04,,---,0.24,VWS V14.01,2013-01-17 21:13:00,
2013-01-17 16:18:00,38.5,9.0,30.03,WNW,288,4.9,6.9,29,0.04,,---,0.24,VWS V14.01,2013-01-17 21:18:00,
2013-01-17 16:23:00,38.5,9.0,30.03,WNW,289,0.0,6.7,29,0.04,,---,0.24,VWS V14.01,2013-01-17 21:23:00,
2013-01-17 16:28:00,38.3,9.6,30.03,WNW,287,2.7,4.5,30,0.04,,---,0.24,VWS V14.01,2013-01-17 21:28:00,
2013-01-17 16:33:00,38.1,9.4,30.03,WNW,287,0.0,3.6,30,0.04,,---,0.24,VWS V14.01,2013-01-17 21:33:00,
2013-01-17 16:38:00,37.9,9.3,30.03,WNW,287,0.0,0.0,30,0.04,,---,0.24,VWS V14.01,2013-01-17 21:38:00,
2013-01-17 16:43:00,37.8,9.1,30.03,WNW,287,0.0,3.6,30,0.04,,---,0.24,VWS V14.01,2013-01-17 21:43:00,
2013-01-17 16:48:00,37.8,9.1,30.03,WNW,287,0.0,0.0,30,0.04,,---,0.24,VWS V14.01,2013-01-17 21:48:00,
2013-01-17 16:53:00,37.6,9.7,30.03,WNW,288,3.6,4.0,31,0.00,,---,0.24,VWS V14.01,2013-01-17 21:53:00,
2013-01-17 16:58:00,37.4,9.5,30.03,WNW,287,0.0,0.0,31,0.00,,---,0.24,VWS V14.01,2013-01-17 21:58:00,
2013-01-17 17:03:00,37.4,9.5,30.03,WNW,288,0.0,0.0,31,0.00,,---,0.24,VWS V14.01,2013-01-17 22:03:00,
2013-01-17 17:08:00,37.2,9.4,30.03,WNW,288,0.0,0.0,31,0.00,,---,0.24,VWS V14.01,2013-01-17 22:08:00,
2013-01-17 17:13:00,37.0,9.2,30.03,WNW,287,0.0,0.0,31,0.00,,---,0.24,VWS V14.01,2013-01-17 22:13:00,
2013-01-17 17:18:00,37.0,9.9,30.03,NNE,19,0.0,5.8,32,0.00,,---,0.24,VWS V14.01,2013-01-17 22:18:00,
2013-01-17 17:23:00,36.9,9.8,30.06,NE,56,0.0,5.8,32,0.00,,---,0.24,VWS V14.01,2013-01-17 22:23:00,
2013-01-17 17:28:00,36.7,10.3,30.06,NE,38,5.4,6.3,33,0.00,,---,0.24,VWS V14.01,2013-01-17 22:28:00,
2013-01-17 17:33:00,36.5,10.1,30.06,NE,44,4.9,5.4,33,0.00,,---,0.24,VWS V14.01,2013-01-17 22:33:00,
2013-01-17 17:38:00,36.3,10.6,30.06,NNE,29,2.7,5.4,34,0.00,,---,0.24,VWS V14.01,2013-01-17 22:38:00,
2013-01-17 17:43:00,36.1,9.8,30.06,NNE,14,5.4,7.8,33,0.00,,---,0.24,VWS V14.01,2013-01-17 22:43:00,
2013-01-17 17:48:00,35.8,9.5,30.06,North,6,4.0,6.9,33,0.00,,---,0.24,VWS V14.01,2013-01-17 22:48:00,
2013-01-17 17:53:00,35.8,8.8,30.09,NNE,28,4.0,7.8,32,0.00,,---,0.24,VWS V14.01,2013-01-17 22:53:00,
2013-01-17 17:58:00,35.6,8.7,30.09,NNE,18,4.0,10.5,32,0.00,,---,0.24,VWS V14.01,2013-01-17 22:58:00,
2013-01-17 18:03:00,35.4,8.5,30.09,NE,34,5.8,5.8,32,0.00,,---,0.24,VWS V14.01,2013-01-17 23:03:00,
2013-01-17 18:08:00,35.2,8.4,30.06,NE,38,2.7,5.8,32,0.00,,---,0.24,VWS V14.01,2013-01-17 23:08:00,
2013-01-17 18:13:00,35.1,8.2,30.06,NNE,33,4.5,6.9,32,0.00,,---,0.24,VWS V14.01,2013-01-17 23:13:00,
2013-01-17 18:18:00,34.9,8.0,30.06,North,3,3.1,6.3,32,0.00,,---,0.24,VWS V14.01,2013-01-17 23:18:00,
2013-01-17 18:23:00,34.9,8.0,30.06,North,10,2.7,6.9,32,0.00,,---,0.24,VWS V14.01,2013-01-17 23:23:00,
2013-01-17 18:28:00,34.7,7.9,30.06,North,10,4.5,5.8,32,0.00,,---,0.24,VWS V14.01,2013-01-17 23:28:00,
2013-01-17 18:34:00,34.5,7.7,30.06,NE,34,3.1,5.8,32,0.00,,---,0.24,VWS V14.01,2013-01-17 23:34:00,
2013-01-17 18:38:00,34.3,7.6,30.09,NNE,20,4.9,6.7,32,0.00,,---,0.24,VWS V14.01,2013-01-17 23:38:00,
2013-01-17 18:44:00,34.2,7.4,30.09,NNE,24,3.6,5.4,32,0.00,,---,0.24,VWS V14.01,2013-01-17 23:44:00,
2013-01-17 18:49:00,34.0,7.2,30.09,North,10,4.5,6.7,32,0.00,,---,0.24,VWS V14.01,2013-01-17 23:49:00,
2013-01-17 18:54:00,33.8,7.1,30.09,NNE,26,0.0,7.8,32,0.00,,---,0.24,VWS V14.01,2013-01-17 23:54:00,
2013-01-17 18:59:00,33.8,7.1,30.09,NNE,22,0.0,4.9,32,0.00,,---,0.24,VWS V14.01,2013-01-17 23:59:00,
2013-01-17 19:04:00,33.8,7.1,30.09,NNE,33,3.1,5.8,32,0.00,,---,0.24,VWS V14.01,2013-01-18 00:04:00,
2013-01-17 19:09:00,33.6,6.9,30.09,North,7,0.0,6.7,32,0.00,,---,0.24,VWS V14.01,2013-01-18 00:09:00,
2013-01-17 19:14:00,33.6,6.2,30.09,ENE,61,4.5,6.3,31,0.00,,---,0.24,VWS V14.01,2013-01-18 00:14:00,
2013-01-17 19:19:00,33.3,5.9,30.09,ENE,62,4.5,8.3,31,0.00,,---,0.24,VWS V14.01,2013-01-18 00:19:00,
2013-01-17 19:24:00,33.3,5.9,30.09,ENE,67,4.5,4.9,31,0.00,,---,0.24,VWS V14.01,2013-01-18 00:24:00,
2013-01-17 19:29:00,33.1,5.8,30.09,ENE,57,3.1,4.9,31,0.00,,---,0.24,VWS V14.01,2013-01-18 00:29:00,
2013-01-17 19:34:00,33.1,5.8,30.09,North,3,0.0,6.7,31,0.00,,---,0.24,VWS V14.01,2013-01-18 00:34:00,
2013-01-17 19:39:00,32.9,5.6,30.09,ENE,64,3.6,4.9,31,0.00,,---,0.24,VWS V14.01,2013-01-18 00:39:00,
2013-01-17 19:44:00,32.9,5.6,30.09,North,10,0.0,6.9,31,0.00,,---,0.24,VWS V14.01,2013-01-18 00:44:00,
2013-01-17 19:49:00,32.9,5.6,30.09,North,8,0.0,8.7,31,0.00,,---,0.24,VWS V14.01,2013-01-18 00:49:00,
2013-01-17 19:54:00,32.7,5.4,30.09,NNE,25,4.9,7.4,31,0.00,,---,0.24,VWS V14.01,2013-01-18 00:54:00,
2013-01-17 19:59:00,32.5,5.3,30.09,NE,51,3.6,6.7,31,0.00,,---,0.24,VWS V14.01,2013-01-18 00:59:00,
2013-01-17 20:04:00,32.5,5.3,30.09,NE,45,0.0,6.7,31,0.00,,---,0.24,VWS V14.01,2013-01-18 01:04:00,
2013-01-17 20:09:00,32.4,4.4,30.09,NNE,30,3.6,6.3,30,0.00,,---,0.24,VWS V14.01,2013-01-18 01:09:00,
2013-01-17 20:14:00,32.2,4.2,30.09,NNE,27,0.0,7.8,30,0.00,,---,0.24,VWS V14.01,2013-01-18 01:14:00,
2013-01-17 20:19:00,32.2,4.2,30.09,NNE,33,4.0,7.4,30,0.00,,---,0.24,VWS V14.01,2013-01-18 01:19:00,
2013-01-17 20:24:00,32.0,4.1,30.09,NE,41,4.0,5.4,30,0.00,,---,0.24,VWS V14.01,2013-01-18 01:24:00,
2013-01-17 20:29:00,31.8,3.9,30.09,NNE,30,4.5,6.9,30,0.00,,---,0.24,VWS V14.01,2013-01-18 01:29:00,
2013-01-17 20:34:00,31.6,3.8,30.09,NNE,29,6.3,6.9,30,0.00,,---,0.24,VWS V14.01,2013-01-18 01:34:00,
2013-01-17 20:39:00,31.6,3.8,30.06,North,356,2.7,6.7,30,0.00,,---,0.24,VWS V14.01,2013-01-18 01:39:00,
2013-01-17 20:44:00,31.5,3.6,30.06,NE,42,3.1,8.3,30,0.00,,---,0.24,VWS V14.01,2013-01-18 01:44:00,
2013-01-17 20:49:00,31.5,3.6,30.06,NNE,22,3.6,4.9,30,0.00,,---,0.24,VWS V14.01,2013-01-18 01:49:00,
2013-01-17 20:54:00,31.3,3.5,30.09,NE,55,4.9,6.9,30,0.00,,---,0.24,VWS V14.01,2013-01-18 01:54:00,
2013-01-17 20:59:00,31.3,3.5,30.09,North,356,3.6,5.4,30,0.00,,---,0.24,VWS V14.01,2013-01-18 01:59:00,
2013-01-17 21:04:00,31.1,3.3,30.09,NNE,22,5.4,10.1,30,0.00,,---,0.24,VWS V14.01,2013-01-18 02:04:00,
2013-01-17 21:09:00,30.9,3.8,30.06,North,356,4.9,5.8,31,0.00,,---,0.24,VWS V14.01,2013-01-18 02:09:00,
2013-01-17 21:14:00,30.9,3.8,30.06,North,11,4.0,4.9,31,0.00,,---,0.24,VWS V14.01,2013-01-18 02:14:00,
2013-01-17 21:19:00,30.7,3.7,30.06,NNE,12,3.1,5.8,31,0.00,,---,0.24,VWS V14.01,2013-01-18 02:19:00,
2013-01-17 21:24:00,30.7,3.7,30.06,NNE,12,0.0,4.5,31,0.00,,---,0.24,VWS V14.01,2013-01-18 02:24:00,
2013-01-17 21:29:00,30.7,3.7,30.06,North,11,3.6,4.5,31,0.00,,---,0.24,VWS V14.01,2013-01-18 02:29:00,
2013-01-17 21:34:00,30.6,3.5,30.06,NNE,22,4.9,8.3,31,0.00,,---,0.24,VWS V14.01,2013-01-18 02:34:00,
2013-01-17 21:39:00,30.6,3.5,30.06,NNE,23,2.7,5.8,31,0.00,,---,0.24,VWS V14.01,2013-01-18 02:39:00,
2013-01-17 21:44:00,30.4,3.4,30.06,NNE,28,4.0,7.8,31,0.00,,---,0.24,VWS V14.01,2013-01-18 02:44:00,
2013-01-17 21:49:00,30.2,3.2,30.06,North,351,3.6,6.3,31,0.00,,---,0.24,VWS V14.01,2013-01-18 02:49:00,
2013-01-17 21:54:00,30.0,3.1,30.06,NE,56,5.8,7.4,31,0.00,,---,0.24,VWS V14.01,2013-01-18 02:54:00,
2013-01-17 21:59:00,30.0,3.1,30.06,North,10,0.0,7.8,31,0.00,,---,0.04,VWS V14.01,2013-01-18 02:59:00,
2013-01-17 22:04:00,29.8,2.9,30.06,NNE,32,5.8,6.9,31,0.00,,---,0.24,VWS V14.01,2013-01-18 03:04:00,
2013-01-17 22:09:00,29.7,2.7,30.06,NE,38,0.0,6.7,31,0.00,,---,0.24,VWS V14.01,2013-01-18 03:09:00,
2013-01-17 22:14:00,29.7,3.4,30.06,NNE,33,3.6,5.4,32,0.00,,---,0.24,VWS V14.01,2013-01-18 03:14:00,
2013-01-17 22:19:00,29.7,3.4,30.06,NE,50,4.0,7.8,32,0.00,,---,0.24,VWS V14.01,2013-01-18 03:19:00,
2013-01-17 22:24:00,29.7,3.4,30.06,NNE,18,2.7,6.7,32,0.00,,---,0.24,VWS V14.01,2013-01-18 03:24:00,
2013-01-17 22:29:00,29.5,3.3,30.06,NE,55,2.7,5.8,32,0.00,,---,0.24,VWS V14.01,2013-01-18 03:29:00,
2013-01-17 22:34:00,29.5,3.3,30.06,North,3,6.3,6.9,32,0.00,,---,0.24,VWS V14.01,2013-01-18 03:34:00,
2013-01-17 22:39:00,29.3,3.1,30.03,NNE,23,4.9,7.8,32,0.00,,---,0.24,VWS V14.01,2013-01-18 03:39:00,
2013-01-17 22:44:00,29.3,3.1,30.03,North,11,5.8,6.7,32,0.00,,---,0.24,VWS V14.01,2013-01-18 03:44:00,
2013-01-17 22:49:00,29.1,3.0,30.03,North,8,3.6,7.4,32,0.00,,---,0.24,VWS V14.01,2013-01-18 03:49:00,
2013-01-17 22:54:00,28.8,2.6,30.03,NE,47,2.7,9.2,32,0.00,,---,0.24,VWS V14.01,2013-01-18 03:54:00,
2013-01-17 22:59:00,28.8,2.6,30.03,NE,42,4.5,8.3,32,0.00,,---,0.24,VWS V14.01,2013-01-18 03:59:00,
2013-01-17 23:04:00,28.6,2.5,30.03,NE,42,5.4,9.6,32,0.00,,---,0.24,VWS V14.01,2013-01-18 04:04:00,
2013-01-17 23:09:00,28.4,2.3,30.00,NNE,13,7.8,7.8,32,0.00,,---,0.24,VWS V14.01,2013-01-18 04:09:00,
2013-01-17 23:14:00,28.0,1.3,30.00,NE,47,6.9,8.3,31,0.00,,---,0.24,VWS V14.01,2013-01-18 04:14:00,
2013-01-17 23:19:00,28.0,1.3,30.00,NNE,18,3.6,9.6,31,0.00,,---,0.24,VWS V14.01,2013-01-18 04:19:00,
2013-01-17 23:24:00,28.0,1.3,30.03,NNE,26,4.0,6.3,31,0.00,,---,0.24,VWS V14.01,2013-01-18 04:24:00,
2013-01-17 23:29:00,28.0,1.3,30.03,NNE,12,4.9,7.8,31,0.00,,---,0.24,VWS V14.01,2013-01-18 04:29:00,
2013-01-17 23:34:00,27.7,-1.2,30.03,NNE,19,8.3,10.5,28,0.00,,---,0.24,VWS V14.01,2013-01-18 04:34:00,
2013-01-17 23:39:00,27.5,-2.9,30.06,NNE,32,4.9,8.7,26,0.00,,---,0.24,VWS V14.01,2013-01-18 04:39:00,
2013-01-17 23:44:00,27.5,-2.9,30.06,NE,37,7.4,8.3,26,0.00,,---,0.24,VWS V14.01,2013-01-18 04:44:00,
2013-01-17 23:49:00,27.1,-3.2,30.06,NE,41,0.0,9.6,26,0.00,,---,0.24,VWS V14.01,2013-01-18 04:49:00,
2013-01-17 23:54:00,27.1,-3.2,30.06,NE,41,7.8,8.3,26,0.00,,---,0.24,VWS V14.01,2013-01-18 04:54:00,
2013-01-17 23:59:00,27.1,-3.2,30.06,NNE,27,4.0,7.8,26,0.00,,---,0.00,VWS V14.01,2013-01-18 04:59:00,